createdAt,value
2024-02-29T00:02:24.730Z,43.78
2024-02-29T00:05:27.878Z,49.40
2024-02-29T00:08:30.865Z,51.33
2024-02-29T00:11:34.159Z,47.97
2024-02-29T00:14:39.695Z,44.17
2024-02-29T00:17:43.121Z,46.78
2024-02-29T00:20:46.269Z,49.10
2024-02-29T00:23:49.666Z,48.08
2024-02-29T00:26:52.442Z,47.20
2024-02-29T00:29:55.781Z,51.53
2024-02-29T00:32:58.820Z,43.87
2024-02-29T00:36:09.316Z,48.50
2024-02-29T00:39:15.418Z,43.75
2024-02-29T00:42:19.073Z,46.70
2024-02-29T00:45:21.857Z,47.62
2024-02-29T00:48:24.938Z,48.65
2024-02-29T00:51:27.936Z,45.50
2024-02-29T00:54:31.186Z,47.15
2024-02-29T00:57:34.355Z,45.12
2024-02-29T01:00:37.722Z,51.90
2024-02-29T01:03:41.087Z,43.97
2024-02-29T01:06:44.570Z,46.67
2024-02-29T01:09:47.564Z,45.60
2024-02-29T01:12:50.959Z,51.88
2024-02-29T01:15:53.999Z,43.80
2024-02-29T01:18:58.519Z,44.58
2024-02-29T01:22:03.734Z,47.13
2024-02-29T01:25:07.811Z,50.55
2024-02-29T01:28:11.490Z,49.42
2024-02-29T01:31:15.627Z,53.20
2024-02-29T01:34:19.948Z,51.53
2024-02-29T01:37:23.366Z,49.30
2024-02-29T01:40:26.613Z,46.80
2024-02-29T01:43:30.791Z,46.80
2024-02-29T01:46:33.802Z,45.72
2024-02-29T01:49:37.391Z,44.15
2024-02-29T01:52:44.419Z,47.87
2024-02-29T01:55:47.836Z,48.33
2024-02-29T01:58:51.151Z,49.00
2024-02-29T02:01:54.485Z,47.17
2024-02-29T02:04:57.859Z,50.58
2024-02-29T02:08:00.882Z,45.43
2024-02-29T02:11:04.378Z,45.58
2024-02-29T02:14:07.312Z,47.72
2024-02-29T02:17:11.743Z,45.30
2024-02-29T02:20:18.959Z,41.72
2024-02-29T02:23:22.927Z,41.57
2024-02-29T02:26:25.698Z,41.93
2024-02-29T02:29:29.050Z,41.60
2024-02-29T02:32:31.905Z,47.53
2024-02-29T02:35:35.504Z,44.50
2024-02-29T02:38:38.510Z,44.93
2024-02-29T02:41:42.299Z,43.77
2024-02-29T02:44:45.056Z,46.78
2024-02-29T02:47:48.151Z,41.85
2024-02-29T02:50:52.668Z,44.63
2024-02-29T02:53:55.832Z,47.43
2024-02-29T02:56:58.808Z,42.92
2024-02-29T03:00:02.019Z,44.65
2024-02-29T03:03:05.194Z,41.75
2024-02-29T03:06:08.261Z,45.83
2024-02-29T03:09:12.672Z,46.93
2024-02-29T03:12:16.836Z,48.63
2024-02-29T03:15:19.818Z,44.15
2024-02-29T03:18:22.975Z,50.80
2024-02-29T03:21:25.885Z,54.30
2024-02-29T03:24:29.007Z,48.57
2024-02-29T03:27:31.934Z,51.45
2024-02-29T03:30:35.166Z,43.97
2024-02-29T03:33:38.495Z,47.55
2024-02-29T03:36:41.787Z,49.47
2024-02-29T03:39:44.701Z,50.00
2024-02-29T03:42:47.951Z,43.58
2024-02-29T03:45:50.761Z,50.05
2024-02-29T03:48:54.018Z,45.63
2024-02-29T03:51:56.821Z,52.60
2024-02-29T03:54:59.932Z,44.87
2024-02-29T03:58:02.699Z,47.40
2024-02-29T04:01:06.856Z,41.83
2024-02-29T04:04:10.163Z,46.42
2024-02-29T04:07:13.046Z,46.58
2024-02-29T04:10:16.653Z,45.50
2024-02-29T04:13:19.738Z,44.22
2024-02-29T04:16:23.583Z,43.55
2024-02-29T04:19:26.252Z,41.53
2024-02-29T04:22:31.169Z,46.28
2024-02-29T04:25:34.053Z,45.93
2024-02-29T04:28:37.843Z,38.60
2024-02-29T04:31:40.730Z,39.65
2024-02-29T04:34:43.887Z,47.92
2024-02-29T04:37:46.593Z,42.33
2024-02-29T04:40:49.665Z,43.10
2024-02-29T04:43:52.731Z,50.85
2024-02-29T04:46:55.844Z,45.08
2024-02-29T04:49:59.673Z,45.15
2024-02-29T04:53:02.848Z,48.75
2024-02-29T04:56:07.400Z,52.07
2024-02-29T04:59:11.549Z,46.45
2024-02-29T05:02:14.798Z,56.35
2024-02-29T05:05:18.292Z,53.17
2024-02-29T05:08:21.038Z,50.97
2024-02-29T05:11:24.426Z,61.80
2024-02-29T05:14:27.184Z,58.35
2024-02-29T05:17:30.634Z,53.53
2024-02-29T05:20:33.615Z,53.45
2024-02-29T05:23:36.671Z,52.08
2024-02-29T05:26:39.847Z,52.43
2024-02-29T05:29:43.030Z,49.75
2024-02-29T05:32:46.065Z,53.95
2024-02-29T05:35:52.325Z,44.72
2024-02-29T05:38:56.031Z,48.28
2024-02-29T05:41:59.525Z,53.30
2024-02-29T05:45:03.250Z,46.25
2024-02-29T05:48:06.875Z,46.92
2024-02-29T05:51:10.337Z,47.85
2024-02-29T05:54:13.719Z,51.95
2024-02-29T05:57:16.554Z,60.87
2024-02-29T06:00:20.899Z,55.70
2024-02-29T06:03:24.028Z,75.60
2024-02-29T06:06:27.227Z,61.85
2024-02-29T06:09:30.381Z,112.15
2024-02-29T06:12:33.164Z,87.57
2024-02-29T06:15:36.388Z,58.72
2024-02-29T06:18:39.498Z,241.63
2024-02-29T06:21:43.272Z,133.18
2024-02-29T06:24:46.358Z,98.60
2024-02-29T06:27:49.866Z,61.63
2024-02-29T06:30:53.379Z,123.03
2024-02-29T06:33:56.729Z,92.40
2024-02-29T06:36:59.659Z,101.78
2024-02-29T06:40:02.985Z,77.70
2024-02-29T06:43:05.964Z,76.72
2024-02-29T06:46:11.835Z,74.50
2024-02-29T06:49:15.006Z,65.25
2024-02-29T06:52:18.400Z,60.30
2024-02-29T06:55:21.459Z,58.47
2024-02-29T06:58:24.578Z,57.22
2024-02-29T07:01:28.308Z,62.55
2024-02-29T07:04:31.492Z,51.65
2024-02-29T07:07:34.482Z,49.15
2024-02-29T07:10:37.724Z,46.53
2024-02-29T07:13:40.752Z,51.35
2024-02-29T07:16:44.488Z,47.13
2024-02-29T07:19:47.333Z,48.67
2024-02-29T07:22:50.903Z,56.90
2024-02-29T07:25:54.750Z,45.37
2024-02-29T07:28:58.929Z,48.25
2024-02-29T07:32:02.274Z,42.72
2024-02-29T07:35:06.538Z,44.17
2024-02-29T07:38:09.261Z,46.95
2024-02-29T07:41:12.418Z,43.07
2024-02-29T07:44:15.792Z,39.72
2024-02-29T07:47:19.346Z,37.40
2024-02-29T07:50:22.141Z,38.47
2024-02-29T07:53:25.139Z,39.35
2024-02-29T07:56:30.295Z,34.60
2024-02-29T07:59:33.499Z,37.65
2024-02-29T08:02:36.275Z,43.42
2024-02-29T08:05:39.731Z,41.50
2024-02-29T08:08:42.915Z,39.05
2024-02-29T08:11:47.481Z,36.67
2024-02-29T08:14:50.601Z,39.50
2024-02-29T08:17:54.114Z,36.67
2024-02-29T08:20:57.107Z,33.45
2024-02-29T08:24:01.234Z,40.78
2024-02-29T08:27:04.784Z,35.40
2024-02-29T08:30:08.424Z,36.78
2024-02-29T08:33:11.451Z,32.67
2024-02-29T08:36:14.776Z,33.60
2024-02-29T08:39:18.721Z,31.90
2024-02-29T08:42:22.026Z,36.03
2024-02-29T08:45:24.788Z,33.30
2024-02-29T08:48:28.903Z,32.75
2024-02-29T08:51:32.965Z,34.40
2024-02-29T08:54:36.691Z,47.58
2024-02-29T08:57:40.109Z,39.70
2024-02-29T09:00:46.062Z,34.70
2024-02-29T09:03:51.179Z,35.30
2024-02-29T09:06:55.086Z,33.40
2024-02-29T09:09:58.228Z,36.60
2024-02-29T09:13:04.713Z,34.93
2024-02-29T09:16:11.236Z,40.97
2024-02-29T09:19:14.916Z,39.30
2024-02-29T09:22:17.920Z,38.72
2024-02-29T09:25:21.240Z,35.58
2024-02-29T09:28:24.283Z,37.17
2024-02-29T09:31:27.520Z,36.60
2024-02-29T09:34:35.540Z,40.17
2024-02-29T09:37:41.285Z,34.55
2024-02-29T09:40:49.580Z,32.38
2024-02-29T09:43:57.758Z,35.60
2024-02-29T09:47:00.795Z,34.92
2024-02-29T09:50:05.870Z,31.92
2024-02-29T09:53:11.326Z,32.72
2024-02-29T09:56:15.586Z,33.72
2024-02-29T09:59:19.584Z,33.90
2024-02-29T10:02:24.591Z,29.57
2024-02-29T10:05:28.281Z,34.80
2024-02-29T10:08:32.171Z,36.72
2024-02-29T10:11:43.308Z,35.95
2024-02-29T10:14:47.314Z,31.73
2024-02-29T10:17:50.927Z,29.12
2024-02-29T10:20:54.017Z,28.75
2024-02-29T10:23:58.649Z,29.23
2024-02-29T10:27:06.533Z,26.50
2024-02-29T10:30:16.200Z,25.83
2024-02-29T10:33:19.256Z,26.23
2024-02-29T10:36:22.810Z,26.33
2024-02-29T10:39:25.675Z,22.83
2024-02-29T10:42:29.043Z,22.67
2024-02-29T10:45:36.483Z,18.57
2024-02-29T10:49:34.526Z,21.83
2024-02-29T10:52:44.911Z,24.50
2024-02-29T10:55:54.169Z,23.62
2024-02-29T10:59:08.894Z,22.40
2024-02-29T11:02:13.305Z,20.67
2024-02-29T11:05:18.395Z,25.67
2024-02-29T11:08:22.473Z,25.17
2024-02-29T11:11:29.798Z,23.85
2024-02-29T11:14:37.298Z,25.95
2024-02-29T11:17:42.914Z,24.23
2024-02-29T11:20:46.074Z,25.95
2024-02-29T11:23:49.027Z,24.52
2024-02-29T11:26:58.889Z,24.45
2024-02-29T11:30:02.690Z,24.50
2024-02-29T11:33:12.632Z,18.93
2024-02-29T11:36:16.199Z,20.75
2024-02-29T11:39:23.946Z,10.48
2024-02-29T11:42:28.366Z,10.52
2024-02-29T11:45:32.680Z,15.05
2024-02-29T11:48:36.275Z,14.87
2024-02-29T11:51:39.408Z,12.37
2024-02-29T11:54:43.514Z,12.13
2024-02-29T11:57:47.496Z,11.50
2024-02-29T12:00:50.810Z,10.20
2024-02-29T12:03:54.281Z,13.77
2024-02-29T12:06:57.356Z,12.50
2024-02-29T12:10:05.439Z,16.62
2024-02-29T12:13:08.935Z,13.98
2024-02-29T12:16:12.534Z,12.15
2024-02-29T12:19:15.938Z,14.37
2024-02-29T12:22:20.412Z,12.63
2024-02-29T12:25:23.993Z,16.10
2024-02-29T12:28:27.445Z,11.82
2024-02-29T12:31:30.745Z,11.43
2024-02-29T12:34:34.094Z,9.80
2024-02-29T12:37:40.650Z,12.73
2024-02-29T12:40:44.897Z,11.68
2024-02-29T12:43:55.506Z,12.85
2024-02-29T12:46:59.752Z,11.25
2024-02-29T12:50:03.134Z,10.73
2024-02-29T12:53:07.042Z,12.48
2024-02-29T12:56:10.488Z,13.50
2024-02-29T12:59:14.036Z,9.35
2024-02-29T13:02:17.478Z,9.55
2024-02-29T13:05:22.628Z,16.10
2024-02-29T13:08:25.897Z,14.38
2024-02-29T13:11:29.531Z,17.48
2024-02-29T13:14:32.420Z,12.57
2024-02-29T13:17:35.875Z,9.85
2024-02-29T13:20:39.167Z,11.97
2024-02-29T13:23:42.526Z,16.60
2024-02-29T13:26:45.603Z,16.25
2024-02-29T13:29:48.830Z,15.27
2024-02-29T13:32:51.877Z,15.40
2024-02-29T13:35:55.431Z,14.33
2024-02-29T13:38:58.279Z,13.20
2024-02-29T13:42:06.614Z,12.43
2024-02-29T13:45:10.985Z,17.00
2024-02-29T13:48:14.722Z,12.65
2024-02-29T13:51:17.721Z,13.27
2024-02-29T13:54:21.325Z,12.43
2024-02-29T13:57:24.368Z,13.20
2024-02-29T14:00:27.625Z,12.90
2024-02-29T14:03:30.665Z,9.98
2024-02-29T14:06:34.154Z,13.30
2024-02-29T14:09:37.857Z,14.20
2024-02-29T14:12:41.771Z,16.05
2024-02-29T14:15:45.121Z,13.07
2024-02-29T14:18:48.181Z,17.92
2024-02-29T14:21:53.118Z,18.53
2024-02-29T14:24:55.961Z,15.05
2024-02-29T14:27:59.398Z,14.48
2024-02-29T14:31:03.177Z,14.02
2024-02-29T14:34:07.485Z,19.67
2024-02-29T14:37:10.852Z,15.53
2024-02-29T14:40:14.357Z,24.45
2024-02-29T14:43:17.468Z,18.83
2024-02-29T14:46:20.680Z,17.62
2024-02-29T14:49:24.538Z,17.40
2024-02-29T14:52:28.654Z,16.37
2024-02-29T14:55:31.628Z,15.68
2024-02-29T14:58:35.292Z,17.70
2024-02-29T15:01:38.455Z,19.20
2024-02-29T15:04:42.012Z,14.57
2024-02-29T15:07:45.238Z,19.60
2024-02-29T15:10:49.065Z,15.02
2024-02-29T15:13:52.005Z,15.40
2024-02-29T15:16:55.390Z,16.70
2024-02-29T15:19:59.432Z,15.23
2024-02-29T15:23:02.950Z,14.33
2024-02-29T15:26:10.807Z,15.82
2024-02-29T15:29:14.081Z,14.73
2024-02-29T15:32:20.482Z,13.38
2024-02-29T15:35:23.662Z,15.02
2024-02-29T15:38:27.225Z,19.30
2024-02-29T15:41:30.798Z,53.97
2024-02-29T15:44:35.043Z,67.78
2024-02-29T15:47:38.318Z,94.22
2024-02-29T15:50:41.631Z,75.47
2024-02-29T15:53:45.281Z,22.97
2024-02-29T15:56:49.532Z,23.00
2024-02-29T15:59:52.972Z,19.77
2024-02-29T16:02:55.872Z,15.88
2024-02-29T16:05:58.897Z,12.55
2024-02-29T16:09:02.025Z,16.43
2024-02-29T16:12:07.271Z,12.50
2024-02-29T16:15:11.265Z,15.57
2024-02-29T16:18:14.469Z,14.65
2024-02-29T16:21:17.558Z,13.98
2024-02-29T16:24:20.749Z,16.77
2024-02-29T16:27:23.588Z,9.98
2024-02-29T16:30:26.786Z,20.85
2024-02-29T16:33:29.993Z,32.85
2024-02-29T16:36:35.826Z,24.58
2024-02-29T16:39:38.637Z,72.07
2024-02-29T16:42:42.079Z,49.53
2024-02-29T16:45:45.933Z,45.17
2024-02-29T16:48:55.160Z,66.90
2024-02-29T16:51:59.501Z,38.58
2024-02-29T16:55:03.266Z,21.93
2024-02-29T16:58:07.300Z,18.55
2024-02-29T17:01:11.234Z,19.65
2024-02-29T17:04:14.221Z,16.95
2024-02-29T17:07:17.398Z,17.55
2024-02-29T17:10:20.388Z,24.87
2024-02-29T17:13:24.164Z,22.40
2024-02-29T17:16:27.354Z,65.80
2024-02-29T17:19:30.731Z,36.25
2024-02-29T17:22:33.831Z,32.08
2024-02-29T17:25:39.435Z,44.37
2024-02-29T17:28:42.735Z,45.65
2024-02-29T17:31:46.758Z,43.22
2024-02-29T17:34:50.892Z,36.75
2024-02-29T17:37:54.043Z,33.33
2024-02-29T17:40:57.394Z,41.67
2024-02-29T17:44:00.522Z,31.58
2024-02-29T17:47:04.613Z,32.33
2024-02-29T17:50:09.160Z,31.37
2024-02-29T17:53:12.251Z,27.75
2024-02-29T17:56:19.756Z,29.97
2024-02-29T17:59:22.927Z,25.73
2024-02-29T18:02:26.606Z,28.33
2024-02-29T18:05:30.145Z,27.48
2024-02-29T18:08:33.391Z,23.87
2024-02-29T18:11:36.494Z,25.50
2024-02-29T18:14:39.326Z,26.92
2024-02-29T18:17:42.460Z,23.45
2024-02-29T18:20:45.866Z,23.87
2024-02-29T18:23:52.055Z,22.37
2024-02-29T18:26:55.441Z,19.17
2024-02-29T18:29:59.008Z,16.33
2024-02-29T18:33:01.855Z,19.20
2024-02-29T18:36:05.499Z,17.83
2024-02-29T18:39:13.192Z,17.55
2024-02-29T18:42:18.710Z,17.47
2024-02-29T18:45:21.617Z,15.98
2024-02-29T18:48:25.504Z,16.98
2024-02-29T18:51:28.255Z,17.80
2024-02-29T18:54:31.851Z,16.42
2024-02-29T18:57:36.115Z,19.17
2024-02-29T19:00:39.421Z,19.55
2024-02-29T19:03:42.272Z,16.35
2024-02-29T19:06:47.181Z,18.70
2024-02-29T19:09:50.339Z,17.55
2024-02-29T19:12:53.642Z,19.67
2024-02-29T19:15:56.891Z,20.48
2024-02-29T19:19:00.785Z,20.17
2024-02-29T19:22:05.127Z,18.02
2024-02-29T19:25:09.007Z,19.15
2024-02-29T19:28:12.253Z,18.70
2024-02-29T19:31:16.855Z,19.15
2024-02-29T19:34:21.826Z,15.68
2024-02-29T19:37:25.571Z,16.05
2024-02-29T19:40:30.157Z,18.42
2024-02-29T19:43:33.812Z,19.17
2024-02-29T19:46:44.440Z,18.27
2024-02-29T19:49:47.880Z,19.37
2024-02-29T19:52:52.166Z,19.45
2024-02-29T19:55:56.690Z,19.58
2024-02-29T19:58:59.659Z,20.83
2024-02-29T20:02:03.416Z,18.40
2024-02-29T20:05:08.981Z,20.08
2024-02-29T20:08:12.449Z,17.23
2024-02-29T20:11:16.540Z,14.63
2024-02-29T20:14:19.522Z,20.60
2024-02-29T20:17:24.256Z,17.00
2024-02-29T20:20:27.573Z,16.30
2024-02-29T20:23:31.146Z,18.17
2024-02-29T20:26:34.457Z,16.48
2024-02-29T20:29:37.831Z,17.70
2024-02-29T20:32:41.753Z,18.87
2024-02-29T20:35:45.155Z,18.85
2024-02-29T20:38:48.613Z,19.37
2024-02-29T20:41:51.924Z,18.87
2024-02-29T20:44:56.399Z,19.87
2024-02-29T20:48:00.269Z,19.65
2024-02-29T20:51:05.142Z,21.48
2024-02-29T20:54:08.948Z,22.98
2024-02-29T20:57:11.724Z,20.50
2024-02-29T21:00:18.418Z,23.83
2024-02-29T21:06:49.380Z,24.37
2024-02-29T21:09:53.232Z,27.37
2024-02-29T21:12:57.323Z,25.85
2024-02-29T21:16:01.088Z,28.43
2024-02-29T21:19:04.863Z,27.87
2024-02-29T21:22:12.049Z,26.95
2024-02-29T21:25:15.365Z,27.50
2024-02-29T21:28:18.480Z,25.85
2024-02-29T21:31:21.730Z,28.90
2024-02-29T21:34:24.613Z,34.60
2024-02-29T21:37:27.912Z,30.85
2024-02-29T21:40:32.528Z,33.65
2024-02-29T21:43:36.051Z,37.70
2024-02-29T21:46:38.935Z,28.10
2024-02-29T21:49:42.319Z,33.35
2024-02-29T21:52:45.258Z,30.08
2024-02-29T21:55:48.742Z,30.48
2024-02-29T21:58:51.966Z,31.83
2024-02-29T22:01:58.751Z,30.20
2024-02-29T22:05:02.157Z,29.77
2024-02-29T22:08:06.260Z,34.15
2024-02-29T22:11:10.154Z,37.42
2024-02-29T22:14:13.485Z,39.00
2024-02-29T22:17:16.883Z,35.50
2024-02-29T22:20:20.813Z,35.83
2024-02-29T22:23:23.999Z,36.72
2024-02-29T22:26:27.430Z,33.03
2024-02-29T22:29:30.929Z,34.22
2024-02-29T22:32:34.134Z,31.67
2024-02-29T22:35:37.393Z,36.42
2024-02-29T22:38:41.382Z,35.85
2024-02-29T22:41:56.538Z,34.58
2024-02-29T22:45:08.670Z,37.15
2024-02-29T22:48:11.998Z,40.40
2024-02-29T22:51:17.166Z,40.15
2024-02-29T22:54:20.663Z,37.67
2024-02-29T22:57:23.482Z,37.28
2024-02-29T23:00:31.944Z,41.97
2024-02-29T23:03:36.032Z,39.53
2024-02-29T23:06:39.543Z,40.78
2024-02-29T23:09:42.284Z,38.63
2024-02-29T23:12:45.833Z,36.33
2024-02-29T23:15:50.608Z,37.42
2024-02-29T23:18:53.827Z,36.57
2024-02-29T23:21:56.840Z,41.30
2024-02-29T23:25:00.048Z,36.58
2024-02-29T23:28:02.901Z,40.70
2024-02-29T23:31:06.731Z,37.15
2024-02-29T23:34:09.620Z,37.87
2024-02-29T23:37:13.063Z,37.33
2024-02-29T23:40:16.168Z,38.55
2024-02-29T23:43:19.859Z,38.58
2024-02-29T23:46:23.109Z,41.72
2024-02-29T23:49:27.081Z,37.00
2024-02-29T23:52:29.950Z,36.78
2024-02-29T23:55:33.347Z,35.75
2024-02-29T23:58:37.594Z,38.85
